sensor_id;sensor_type;location;lat;lon;timestamp;temperature;humidity
13817;DHT22;6979;52.116;5.286;2022-07-23T00:00:43;20.60;99.90
13817;DHT22;6979;52.116;5.286;2022-07-23T00:03:10;20.60;99.90
13817;DHT22;6979;52.116;5.286;2022-07-23T00:05:37;20.60;99.90
13817;DHT22;6979;52.116;5.286;2022-07-23T00:08:04;20.60;99.90
13817;DHT22;6979;52.116;5.286;2022-07-23T00:10:32;20.60;99.90
13817;DHT22;6979;52.116;5.286;2022-07-23T00:12:59;20.50;99.90
13817;DHT22;6979;52.116;5.286;2022-07-23T00:15:26;20.50;99.90
13817;DHT22;6979;52.116;5.286;2022-07-23T00:17:54;20.50;99.90
13817;DHT22;6979;52.116;5.286;2022-07-23T00:20:21;20.50;99.90
13817;DHT22;6979;52.116;5.286;2022-07-23T00:22:48;20.40;99.90
13817;DHT22;6979;52.116;5.286;2022-07-23T00:25:15;20.40;99.90
13817;DHT22;6979;52.116;5.286;2022-07-23T00:27:42;20.40;99.90
13817;DHT22;6979;52.116;5.286;2022-07-23T00:30:10;20.30;99.90
13817;DHT22;6979;52.116;5.286;2022-07-23T00:32:45;20.30;99.90
13817;DHT22;6979;52.116;5.286;2022-07-23T00:35:14;20.20;99.90
13817;DHT22;6979;52.116;5.286;2022-07-23T00:37:41;20.20;99.90
13817;DHT22;6979;52.116;5.286;2022-07-23T00:40:09;20.20;99.90
13817;DHT22;6979;52.116;5.286;2022-07-23T00:42:36;20.20;99.90
13817;DHT22;6979;52.116;5.286;2022-07-23T00:45:04;20.10;99.90
13817;DHT22;6979;52.116;5.286;2022-07-23T00:47:31;20.10;99.90
13817;DHT22;6979;52.116;5.286;2022-07-23T00:49:59;20.00;99.90
13817;DHT22;6979;52.116;5.286;2022-07-23T00:52:27;20.00;99.90
13817;DHT22;6979;52.116;5.286;2022-07-23T00:54:54;20.00;99.90
13817;DHT22;6979;52.116;5.286;2022-07-23T00:57:20;20.00;99.90
13817;DHT22;6979;52.116;5.286;2022-07-23T00:59:47;19.90;99.90
13817;DHT22;6979;52.116;5.286;2022-07-23T01:02:14;19.90;99.90
13817;DHT22;6979;52.116;5.286;2022-07-23T01:04:41;19.90;99.90
13817;DHT22;6979;52.116;5.286;2022-07-23T01:07:08;19.80;99.90
13817;DHT22;6979;52.116;5.286;2022-07-23T01:09:36;19.80;99.90
13817;DHT22;6979;52.116;5.286;2022-07-23T01:12:04;19.80;99.90
13817;DHT22;6979;52.116;5.286;2022-07-23T01:14:31;19.80;99.90
13817;DHT22;6979;52.116;5.286;2022-07-23T01:16:58;19.70;99.90
13817;DHT22;6979;52.116;5.286;2022-07-23T01:19:25;19.70;99.90
13817;DHT22;6979;52.116;5.286;2022-07-23T01:21:53;19.70;99.90
13817;DHT22;6979;52.116;5.286;2022-07-23T01:24:22;19.60;99.90
13817;DHT22;6979;52.116;5.286;2022-07-23T01:26:57;19.70;99.90
13817;DHT22;6979;52.116;5.286;2022-07-23T01:29:25;19.60;99.90
13817;DHT22;6979;52.116;5.286;2022-07-23T01:31:53;19.60;99.90
13817;DHT22;6979;52.116;5.286;2022-07-23T01:34:20;19.60;99.90
13817;DHT22;6979;52.116;5.286;2022-07-23T01:36:47;19.60;99.90
13817;DHT22;6979;52.116;5.286;2022-07-23T01:39:15;19.50;99.90
13817;DHT22;6979;52.116;5.286;2022-07-23T01:41:44;19.50;99.90
13817;DHT22;6979;52.116;5.286;2022-07-23T01:44:12;19.40;99.90
13817;DHT22;6979;52.116;5.286;2022-07-23T01:46:41;19.40;99.90
13817;DHT22;6979;52.116;5.286;2022-07-23T01:49:08;19.40;99.90
13817;DHT22;6979;52.116;5.286;2022-07-23T01:51:54;19.30;99.90
13817;DHT22;6979;52.116;5.286;2022-07-23T01:54:32;19.30;99.90
13817;DHT22;6979;52.116;5.286;2022-07-23T01:57:02;19.30;99.90
13817;DHT22;6979;52.116;5.286;2022-07-23T01:59:29;19.20;99.90
13817;DHT22;6979;52.116;5.286;2022-07-23T02:01:56;19.20;99.90
13817;DHT22;6979;52.116;5.286;2022-07-23T02:04:25;19.20;99.90
13817;DHT22;6979;52.116;5.286;2022-07-23T02:06:52;19.10;99.90
13817;DHT22;6979;52.116;5.286;2022-07-23T02:09:19;19.10;99.90
13817;DHT22;6979;52.116;5.286;2022-07-23T02:11:46;19.10;99.90
13817;DHT22;6979;52.116;5.286;2022-07-23T02:14:14;19.10;99.90
13817;DHT22;6979;52.116;5.286;2022-07-23T02:16:41;19.00;99.90
13817;DHT22;6979;52.116;5.286;2022-07-23T02:19:08;19.00;99.90
13817;DHT22;6979;52.116;5.286;2022-07-23T02:21:36;19.00;99.90
13817;DHT22;6979;52.116;5.286;2022-07-23T02:24:03;19.00;99.90
13817;DHT22;6979;52.116;5.286;2022-07-23T02:26:30;18.90;99.90
13817;DHT22;6979;52.116;5.286;2022-07-23T02:29:01;18.90;99.90
13817;DHT22;6979;52.116;5.286;2022-07-23T02:31:30;18.90;99.90
13817;DHT22;6979;52.116;5.286;2022-07-23T02:33:57;18.80;99.90
13817;DHT22;6979;52.116;5.286;2022-07-23T02:36:24;18.80;99.90
13817;DHT22;6979;52.116;5.286;2022-07-23T02:38:52;18.80;99.90
13817;DHT22;6979;52.116;5.286;2022-07-23T02:41:19;18.80;99.90
13817;DHT22;6979;52.116;5.286;2022-07-23T02:43:46;18.70;99.90
13817;DHT22;6979;52.116;5.286;2022-07-23T02:46:14;18.70;99.90
13817;DHT22;6979;52.116;5.286;2022-07-23T02:48:42;18.70;99.90
13817;DHT22;6979;52.116;5.286;2022-07-23T02:51:09;18.70;99.90
13817;DHT22;6979;52.116;5.286;2022-07-23T02:53:41;18.70;99.90
13817;DHT22;6979;52.116;5.286;2022-07-23T02:56:09;18.60;99.90
13817;DHT22;6979;52.116;5.286;2022-07-23T02:58:36;18.60;99.90
13817;DHT22;6979;52.116;5.286;2022-07-23T03:01:03;18.60;99.90
13817;DHT22;6979;52.116;5.286;2022-07-23T03:03:30;18.60;99.90
13817;DHT22;6979;52.116;5.286;2022-07-23T03:05:58;18.60;99.90
13817;DHT22;6979;52.116;5.286;2022-07-23T03:08:25;18.50;99.90
13817;DHT22;6979;52.116;5.286;2022-07-23T03:10:52;18.50;99.90
13817;DHT22;6979;52.116;5.286;2022-07-23T03:13:19;18.50;99.90
13817;DHT22;6979;52.116;5.286;2022-07-23T03:15:46;18.50;99.90
13817;DHT22;6979;52.116;5.286;2022-07-23T03:18:13;18.50;99.90
13817;DHT22;6979;52.116;5.286;2022-07-23T03:20:40;18.40;99.90
13817;DHT22;6979;52.116;5.286;2022-07-23T03:23:09;18.40;99.90
13817;DHT22;6979;52.116;5.286;2022-07-23T03:25:36;18.40;99.90
13817;DHT22;6979;52.116;5.286;2022-07-23T03:28:04;18.30;99.90
13817;DHT22;6979;52.116;5.286;2022-07-23T03:30:31;18.30;99.90
13817;DHT22;6979;52.116;5.286;2022-07-23T03:32:57;18.30;99.90
13817;DHT22;6979;52.116;5.286;2022-07-23T03:35:24;18.30;99.90
13817;DHT22;6979;52.116;5.286;2022-07-23T03:38:08;18.20;99.90
13817;DHT22;6979;52.116;5.286;2022-07-23T03:40:35;18.30;99.90
13817;DHT22;6979;52.116;5.286;2022-07-23T03:43:02;18.20;99.90
13817;DHT22;6979;52.116;5.286;2022-07-23T03:45:29;18.20;99.90
13817;DHT22;6979;52.116;5.286;2022-07-23T03:47:56;18.10;99.90
13817;DHT22;6979;52.116;5.286;2022-07-23T03:50:23;18.10;99.90
13817;DHT22;6979;52.116;5.286;2022-07-23T03:52:50;18.10;99.90
13817;DHT22;6979;52.116;5.286;2022-07-23T03:55:18;18.10;99.90
13817;DHT22;6979;52.116;5.286;2022-07-23T03:57:45;18.00;99.90
13817;DHT22;6979;52.116;5.286;2022-07-23T04:00:13;18.00;99.90
13817;DHT22;6979;52.116;5.286;2022-07-23T04:02:41;18.00;99.90
13817;DHT22;6979;52.116;5.286;2022-07-23T04:05:10;18.00;99.90
13817;DHT22;6979;52.116;5.286;2022-07-23T04:07:38;17.90;99.90
13817;DHT22;6979;52.116;5.286;2022-07-23T04:10:06;17.90;99.90
13817;DHT22;6979;52.116;5.286;2022-07-23T04:12:34;17.90;99.90
13817;DHT22;6979;52.116;5.286;2022-07-23T04:15:03;17.80;99.90
13817;DHT22;6979;52.116;5.286;2022-07-23T04:17:31;17.80;99.90
13817;DHT22;6979;52.116;5.286;2022-07-23T04:19:58;17.80;99.90
13817;DHT22;6979;52.116;5.286;2022-07-23T04:22:30;17.70;99.90
13817;DHT22;6979;52.116;5.286;2022-07-23T04:24:57;17.70;99.90
13817;DHT22;6979;52.116;5.286;2022-07-23T04:27:24;17.70;99.90
13817;DHT22;6979;52.116;5.286;2022-07-23T04:29:52;17.60;99.90
13817;DHT22;6979;52.116;5.286;2022-07-23T04:32:19;17.60;99.90
13817;DHT22;6979;52.116;5.286;2022-07-23T04:34:46;17.60;99.90
13817;DHT22;6979;52.116;5.286;2022-07-23T04:37:12;17.60;99.90
13817;DHT22;6979;52.116;5.286;2022-07-23T04:39:39;17.60;99.90
13817;DHT22;6979;52.116;5.286;2022-07-23T04:42:06;17.60;99.90
13817;DHT22;6979;52.116;5.286;2022-07-23T04:44:33;17.60;99.90
13817;DHT22;6979;52.116;5.286;2022-07-23T04:47:03;17.60;99.90
13817;DHT22;6979;52.116;5.286;2022-07-23T04:49:30;17.60;99.90
13817;DHT22;6979;52.116;5.286;2022-07-23T04:51:57;17.60;99.90
13817;DHT22;6979;52.116;5.286;2022-07-23T04:54:23;17.60;99.90
13817;DHT22;6979;52.116;5.286;2022-07-23T04:56:50;17.60;99.90
13817;DHT22;6979;52.116;5.286;2022-07-23T04:59:17;17.60;99.90
13817;DHT22;6979;52.116;5.286;2022-07-23T05:01:46;17.60;99.90
13817;DHT22;6979;52.116;5.286;2022-07-23T05:04:15;17.60;99.90
13817;DHT22;6979;52.116;5.286;2022-07-23T05:06:43;17.60;99.90
13817;DHT22;6979;52.116;5.286;2022-07-23T05:09:10;17.60;99.90
13817;DHT22;6979;52.116;5.286;2022-07-23T05:11:37;17.70;99.90
13817;DHT22;6979;52.116;5.286;2022-07-23T05:14:04;17.70;99.90
13817;DHT22;6979;52.116;5.286;2022-07-23T05:16:33;17.70;99.90
13817;DHT22;6979;52.116;5.286;2022-07-23T05:19:05;17.80;99.90
13817;DHT22;6979;52.116;5.286;2022-07-23T05:21:35;17.80;99.90
13817;DHT22;6979;52.116;5.286;2022-07-23T05:24:03;17.90;99.90
13817;DHT22;6979;52.116;5.286;2022-07-23T05:26:30;17.90;99.90
13817;DHT22;6979;52.116;5.286;2022-07-23T05:28:57;18.00;99.90
13817;DHT22;6979;52.116;5.286;2022-07-23T05:31:24;18.00;99.90
13817;DHT22;6979;52.116;5.286;2022-07-23T05:33:51;18.00;99.90
13817;DHT22;6979;52.116;5.286;2022-07-23T05:36:18;18.10;99.90
13817;DHT22;6979;52.116;5.286;2022-07-23T05:38:58;18.10;99.90
13817;DHT22;6979;52.116;5.286;2022-07-23T05:41:25;18.20;99.90
13817;DHT22;6979;52.116;5.286;2022-07-23T05:43:52;18.20;99.90
13817;DHT22;6979;52.116;5.286;2022-07-23T05:46:19;18.30;99.90
13817;DHT22;6979;52.116;5.286;2022-07-23T05:48:51;18.40;99.90
13817;DHT22;6979;52.116;5.286;2022-07-23T05:51:46;18.40;99.90
13817;DHT22;6979;52.116;5.286;2022-07-23T05:54:17;18.50;99.90
13817;DHT22;6979;52.116;5.286;2022-07-23T05:56:45;18.50;99.90
13817;DHT22;6979;52.116;5.286;2022-07-23T05:59:11;18.60;99.90
13817;DHT22;6979;52.116;5.286;2022-07-23T06:01:40;18.70;99.90
13817;DHT22;6979;52.116;5.286;2022-07-23T06:04:09;18.80;99.90
13817;DHT22;6979;52.116;5.286;2022-07-23T06:06:41;18.80;99.90
13817;DHT22;6979;52.116;5.286;2022-07-23T06:09:10;18.90;99.90
13817;DHT22;6979;52.116;5.286;2022-07-23T06:11:41;19.00;99.90
13817;DHT22;6979;52.116;5.286;2022-07-23T06:14:08;19.10;99.90
13817;DHT22;6979;52.116;5.286;2022-07-23T06:16:49;19.20;99.90
13817;DHT22;6979;52.116;5.286;2022-07-23T06:19:16;19.30;99.90
13817;DHT22;6979;52.116;5.286;2022-07-23T06:21:44;19.30;99.90
13817;DHT22;6979;52.116;5.286;2022-07-23T06:24:11;19.40;99.90
13817;DHT22;6979;52.116;5.286;2022-07-23T06:26:38;19.50;99.90
13817;DHT22;6979;52.116;5.286;2022-07-23T06:29:06;19.60;99.90
13817;DHT22;6979;52.116;5.286;2022-07-23T06:31:33;19.70;99.90
13817;DHT22;6979;52.116;5.286;2022-07-23T06:34:00;19.70;99.90
13817;DHT22;6979;52.116;5.286;2022-07-23T06:36:26;19.80;99.90
13817;DHT22;6979;52.116;5.286;2022-07-23T06:38:53;19.90;99.90
13817;DHT22;6979;52.116;5.286;2022-07-23T06:41:20;20.00;99.90
13817;DHT22;6979;52.116;5.286;2022-07-23T06:43:48;20.10;99.90
13817;DHT22;6979;52.116;5.286;2022-07-23T06:46:18;20.20;99.90
13817;DHT22;6979;52.116;5.286;2022-07-23T06:48:46;20.30;99.90
13817;DHT22;6979;52.116;5.286;2022-07-23T06:51:13;20.30;99.90
13817;DHT22;6979;52.116;5.286;2022-07-23T06:53:40;20.40;99.90
13817;DHT22;6979;52.116;5.286;2022-07-23T06:56:08;20.50;99.90
13817;DHT22;6979;52.116;5.286;2022-07-23T06:58:35;20.50;99.90
13817;DHT22;6979;52.116;5.286;2022-07-23T07:01:02;20.60;99.90
13817;DHT22;6979;52.116;5.286;2022-07-23T07:03:30;20.70;99.90
13817;DHT22;6979;52.116;5.286;2022-07-23T07:05:57;20.70;99.90
13817;DHT22;6979;52.116;5.286;2022-07-23T07:08:24;20.70;99.90
13817;DHT22;6979;52.116;5.286;2022-07-23T07:10:51;20.80;99.90
13817;DHT22;6979;52.116;5.286;2022-07-23T07:13:17;20.90;99.90
13817;DHT22;6979;52.116;5.286;2022-07-23T07:15:44;20.90;99.90
13817;DHT22;6979;52.116;5.286;2022-07-23T07:18:11;21.00;99.90
13817;DHT22;6979;52.116;5.286;2022-07-23T07:20:39;21.10;99.90
13817;DHT22;6979;52.116;5.286;2022-07-23T07:23:06;21.10;99.90
13817;DHT22;6979;52.116;5.286;2022-07-23T07:25:34;21.20;99.90
13817;DHT22;6979;52.116;5.286;2022-07-23T07:28:01;21.30;99.90
13817;DHT22;6979;52.116;5.286;2022-07-23T07:30:27;21.30;99.90
13817;DHT22;6979;52.116;5.286;2022-07-23T07:32:54;21.40;99.90
13817;DHT22;6979;52.116;5.286;2022-07-23T07:35:21;21.50;99.90
13817;DHT22;6979;52.116;5.286;2022-07-23T07:37:49;21.50;99.90
13817;DHT22;6979;52.116;5.286;2022-07-23T07:40:16;21.60;99.90
13817;DHT22;6979;52.116;5.286;2022-07-23T07:42:46;21.70;99.90
13817;DHT22;6979;52.116;5.286;2022-07-23T07:45:13;21.70;99.90
13817;DHT22;6979;52.116;5.286;2022-07-23T07:47:40;21.80;99.90
13817;DHT22;6979;52.116;5.286;2022-07-23T07:50:08;21.90;99.90
13817;DHT22;6979;52.116;5.286;2022-07-23T07:52:35;21.90;99.90
13817;DHT22;6979;52.116;5.286;2022-07-23T07:55:04;22.00;99.90
13817;DHT22;6979;52.116;5.286;2022-07-23T07:57:32;22.10;99.90
13817;DHT22;6979;52.116;5.286;2022-07-23T07:59:58;22.20;99.90
13817;DHT22;6979;52.116;5.286;2022-07-23T08:02:25;22.30;99.90
13817;DHT22;6979;52.116;5.286;2022-07-23T08:04:52;22.30;99.90
13817;DHT22;6979;52.116;5.286;2022-07-23T08:07:21;22.40;99.90
13817;DHT22;6979;52.116;5.286;2022-07-23T08:09:48;22.40;99.90
13817;DHT22;6979;52.116;5.286;2022-07-23T08:12:16;22.50;99.90
13817;DHT22;6979;52.116;5.286;2022-07-23T08:14:43;22.60;99.90
13817;DHT22;6979;52.116;5.286;2022-07-23T08:17:10;22.60;99.90
13817;DHT22;6979;52.116;5.286;2022-07-23T08:19:37;22.70;99.90
13817;DHT22;6979;52.116;5.286;2022-07-23T08:22:04;22.80;99.90
13817;DHT22;6979;52.116;5.286;2022-07-23T08:24:30;22.80;99.90
13817;DHT22;6979;52.116;5.286;2022-07-23T08:26:57;22.90;99.90
13817;DHT22;6979;52.116;5.286;2022-07-23T08:29:25;22.90;99.90
13817;DHT22;6979;52.116;5.286;2022-07-23T08:31:52;23.00;99.90
13817;DHT22;6979;52.116;5.286;2022-07-23T08:34:19;23.10;99.90
13817;DHT22;6979;52.116;5.286;2022-07-23T08:36:45;23.10;99.90
13817;DHT22;6979;52.116;5.286;2022-07-23T08:39:12;23.20;99.90
13817;DHT22;6979;52.116;5.286;2022-07-23T08:41:39;23.20;99.90
13817;DHT22;6979;52.116;5.286;2022-07-23T08:44:08;23.30;99.90
13817;DHT22;6979;52.116;5.286;2022-07-23T08:46:36;23.30;99.90
13817;DHT22;6979;52.116;5.286;2022-07-23T08:49:05;23.40;99.90
13817;DHT22;6979;52.116;5.286;2022-07-23T08:51:32;23.50;99.90
13817;DHT22;6979;52.116;5.286;2022-07-23T08:53:59;23.50;99.90
13817;DHT22;6979;52.116;5.286;2022-07-23T08:56:26;23.60;99.90
13817;DHT22;6979;52.116;5.286;2022-07-23T08:58:53;23.70;99.90
13817;DHT22;6979;52.116;5.286;2022-07-23T09:01:20;23.80;99.90
13817;DHT22;6979;52.116;5.286;2022-07-23T09:03:48;23.90;99.90
13817;DHT22;6979;52.116;5.286;2022-07-23T09:06:15;24.20;99.90
13817;DHT22;6979;52.116;5.286;2022-07-23T09:08:43;24.60;99.90
13817;DHT22;6979;52.116;5.286;2022-07-23T09:11:15;25.10;99.90
13817;DHT22;6979;52.116;5.286;2022-07-23T09:13:46;25.70;99.90
13817;DHT22;6979;52.116;5.286;2022-07-23T09:16:14;26.20;99.90
13817;DHT22;6979;52.116;5.286;2022-07-23T09:18:44;26.80;99.90
13817;DHT22;6979;52.116;5.286;2022-07-23T09:21:21;27.30;99.90
13817;DHT22;6979;52.116;5.286;2022-07-23T09:23:51;27.80;99.60
13817;DHT22;6979;52.116;5.286;2022-07-23T09:26:26;28.20;99.90
13817;DHT22;6979;52.116;5.286;2022-07-23T09:29:01;28.60;99.10
13817;DHT22;6979;52.116;5.286;2022-07-23T09:31:34;29.00;97.70
13817;DHT22;6979;52.116;5.286;2022-07-23T09:34:07;29.20;96.20
13817;DHT22;6979;52.116;5.286;2022-07-23T09:36:36;29.40;94.50
13817;DHT22;6979;52.116;5.286;2022-07-23T09:39:04;29.60;94.60
13817;DHT22;6979;52.116;5.286;2022-07-23T09:41:36;29.80;94.60
13817;DHT22;6979;52.116;5.286;2022-07-23T09:44:08;29.90;93.20
13817;DHT22;6979;52.116;5.286;2022-07-23T09:46:36;30.20;92.50
13817;DHT22;6979;52.116;5.286;2022-07-23T09:49:11;30.60;92.80
13817;DHT22;6979;52.116;5.286;2022-07-23T09:51:50;30.90;91.60
13817;DHT22;6979;52.116;5.286;2022-07-23T09:54:33;31.40;90.90
13817;DHT22;6979;52.116;5.286;2022-07-23T09:57:04;31.90;90.60
13817;DHT22;6979;52.116;5.286;2022-07-23T09:59:34;32.30;90.60
13817;DHT22;6979;52.116;5.286;2022-07-23T10:02:02;32.80;89.20
13817;DHT22;6979;52.116;5.286;2022-07-23T10:04:35;33.30;88.10
13817;DHT22;6979;52.116;5.286;2022-07-23T10:07:17;33.70;86.80
13817;DHT22;6979;52.116;5.286;2022-07-23T10:10:06;34.20;85.10
13817;DHT22;6979;52.116;5.286;2022-07-23T10:12:59;34.70;83.10
13817;DHT22;6979;52.116;5.286;2022-07-23T10:15:46;35.10;81.50
13817;DHT22;6979;52.116;5.286;2022-07-23T10:18:13;35.40;80.30
13817;DHT22;6979;52.116;5.286;2022-07-23T10:20:41;35.70;78.40
13817;DHT22;6979;52.116;5.286;2022-07-23T10:23:15;35.80;76.50
13817;DHT22;6979;52.116;5.286;2022-07-23T10:25:51;36.00;74.90
13817;DHT22;6979;52.116;5.286;2022-07-23T10:28:50;36.20;75.70
13817;DHT22;6979;52.116;5.286;2022-07-23T10:31:28;36.30;75.10
13817;DHT22;6979;52.116;5.286;2022-07-23T10:34:06;36.50;73.90
13817;DHT22;6979;52.116;5.286;2022-07-23T10:36:39;36.60;73.90
13817;DHT22;6979;52.116;5.286;2022-07-23T10:39:14;36.80;73.20
13817;DHT22;6979;52.116;5.286;2022-07-23T10:41:42;36.90;72.00
13817;DHT22;6979;52.116;5.286;2022-07-23T10:44:10;37.00;72.00
13817;DHT22;6979;52.116;5.286;2022-07-23T10:46:56;37.10;71.00
13817;DHT22;6979;52.116;5.286;2022-07-23T10:49:43;37.20;70.70
13817;DHT22;6979;52.116;5.286;2022-07-23T10:52:18;37.20;70.70
13817;DHT22;6979;52.116;5.286;2022-07-23T10:54:47;37.20;68.80
13817;DHT22;6979;52.116;5.286;2022-07-23T10:57:16;37.30;69.80
13817;DHT22;6979;52.116;5.286;2022-07-23T11:02:56;37.10;69.10
13817;DHT22;6979;52.116;5.286;2022-07-23T11:05:24;37.00;69.30
13817;DHT22;6979;52.116;5.286;2022-07-23T11:08:20;37.00;68.90
13817;DHT22;6979;52.116;5.286;2022-07-23T11:10:51;36.90;69.40
13817;DHT22;6979;52.116;5.286;2022-07-23T11:13:39;36.90;69.00
13817;DHT22;6979;52.116;5.286;2022-07-23T11:16:11;36.90;70.30
13817;DHT22;6979;52.116;5.286;2022-07-23T11:19:04;37.00;70.00
13817;DHT22;6979;52.116;5.286;2022-07-23T11:21:42;37.00;69.60
13817;DHT22;6979;52.116;5.286;2022-07-23T11:24:11;37.10;69.00
13817;DHT22;6979;52.116;5.286;2022-07-23T11:26:52;37.20;69.00
13817;DHT22;6979;52.116;5.286;2022-07-23T11:29:43;37.20;68.10
13817;DHT22;6979;52.116;5.286;2022-07-23T11:32:32;37.10;67.90
13817;DHT22;6979;52.116;5.286;2022-07-23T11:35:01;36.90;67.40
13817;DHT22;6979;52.116;5.286;2022-07-23T11:37:34;36.70;68.10
13817;DHT22;6979;52.116;5.286;2022-07-23T11:40:04;36.50;67.00
13817;DHT22;6979;52.116;5.286;2022-07-23T11:42:34;36.30;67.80
13817;DHT22;6979;52.116;5.286;2022-07-23T11:45:05;36.10;68.00
13817;DHT22;6979;52.116;5.286;2022-07-23T11:47:32;35.90;68.20
13817;DHT22;6979;52.116;5.286;2022-07-23T11:50:00;35.70;68.70
13817;DHT22;6979;52.116;5.286;2022-07-23T11:52:28;35.50;68.70
13817;DHT22;6979;52.116;5.286;2022-07-23T11:54:59;35.30;68.80
13817;DHT22;6979;52.116;5.286;2022-07-23T11:57:28;35.10;67.10
13817;DHT22;6979;52.116;5.286;2022-07-23T12:00:00;34.90;68.00
13817;DHT22;6979;52.116;5.286;2022-07-23T12:02:38;34.60;67.40
13817;DHT22;6979;52.116;5.286;2022-07-23T12:05:06;34.30;67.50
13817;DHT22;6979;52.116;5.286;2022-07-23T12:07:36;34.00;67.80
13817;DHT22;6979;52.116;5.286;2022-07-23T12:10:08;33.70;68.70
13817;DHT22;6979;52.116;5.286;2022-07-23T12:12:36;33.50;69.40
13817;DHT22;6979;52.116;5.286;2022-07-23T12:15:09;33.30;69.90
13817;DHT22;6979;52.116;5.286;2022-07-23T12:17:38;33.20;70.30
13817;DHT22;6979;52.116;5.286;2022-07-23T12:20:07;33.10;70.70
13817;DHT22;6979;52.116;5.286;2022-07-23T12:22:36;33.00;70.50
13817;DHT22;6979;52.116;5.286;2022-07-23T12:25:05;32.90;70.70
13817;DHT22;6979;52.116;5.286;2022-07-23T12:27:33;32.90;71.10
13817;DHT22;6979;52.116;5.286;2022-07-23T12:30:16;32.90;70.30
13817;DHT22;6979;52.116;5.286;2022-07-23T12:32:44;32.90;70.80
13817;DHT22;6979;52.116;5.286;2022-07-23T12:35:12;33.00;71.10
13817;DHT22;6979;52.116;5.286;2022-07-23T12:37:41;33.00;71.60
13817;DHT22;6979;52.116;5.286;2022-07-23T12:40:29;33.10;71.30
13817;DHT22;6979;52.116;5.286;2022-07-23T12:42:58;33.30;71.10
13817;DHT22;6979;52.116;5.286;2022-07-23T12:45:28;33.40;71.70
13817;DHT22;6979;52.116;5.286;2022-07-23T12:48:03;33.60;70.40
13817;DHT22;6979;52.116;5.286;2022-07-23T12:50:40;33.70;69.70
13817;DHT22;6979;52.116;5.286;2022-07-23T12:53:16;33.90;69.40
13817;DHT22;6979;52.116;5.286;2022-07-23T12:55:44;34.00;70.30
13817;DHT22;6979;52.116;5.286;2022-07-23T12:58:13;34.20;70.20
13817;DHT22;6979;52.116;5.286;2022-07-23T13:00:57;34.40;69.70
13817;DHT22;6979;52.116;5.286;2022-07-23T13:03:30;34.60;68.50
13817;DHT22;6979;52.116;5.286;2022-07-23T13:05:58;34.80;68.80
13817;DHT22;6979;52.116;5.286;2022-07-23T13:08:26;35.00;66.60
13817;DHT22;6979;52.116;5.286;2022-07-23T13:10:53;35.10;67.10
13817;DHT22;6979;52.116;5.286;2022-07-23T13:13:22;35.20;68.50
13817;DHT22;6979;52.116;5.286;2022-07-23T13:15:49;35.30;67.90
13817;DHT22;6979;52.116;5.286;2022-07-23T13:18:18;35.40;68.10
13817;DHT22;6979;52.116;5.286;2022-07-23T13:20:45;35.60;67.70
13817;DHT22;6979;52.116;5.286;2022-07-23T13:23:13;35.70;67.10
13817;DHT22;6979;52.116;5.286;2022-07-23T13:25:41;35.80;67.40
13817;DHT22;6979;52.116;5.286;2022-07-23T13:28:08;36.00;67.30
13817;DHT22;6979;52.116;5.286;2022-07-23T13:30:35;36.10;67.30
13817;DHT22;6979;52.116;5.286;2022-07-23T13:33:03;36.30;66.80
13817;DHT22;6979;52.116;5.286;2022-07-23T13:35:31;36.50;66.10
13817;DHT22;6979;52.116;5.286;2022-07-23T13:37:58;36.60;65.90
13817;DHT22;6979;52.116;5.286;2022-07-23T13:40:25;36.80;66.00
13817;DHT22;6979;52.116;5.286;2022-07-23T13:42:52;37.00;65.70
13817;DHT22;6979;52.116;5.286;2022-07-23T13:45:19;37.20;65.40
13817;DHT22;6979;52.116;5.286;2022-07-23T13:47:47;37.30;64.30
13817;DHT22;6979;52.116;5.286;2022-07-23T13:50:13;37.40;64.10
13817;DHT22;6979;52.116;5.286;2022-07-23T13:52:43;37.60;63.70
13817;DHT22;6979;52.116;5.286;2022-07-23T13:55:10;37.60;63.10
13817;DHT22;6979;52.116;5.286;2022-07-23T13:57:37;37.70;62.50
13817;DHT22;6979;52.116;5.286;2022-07-23T14:00:06;37.70;63.30
13817;DHT22;6979;52.116;5.286;2022-07-23T14:02:35;37.60;63.40
13817;DHT22;6979;52.116;5.286;2022-07-23T14:05:02;37.60;63.30
13817;DHT22;6979;52.116;5.286;2022-07-23T14:07:29;37.70;64.10
13817;DHT22;6979;52.116;5.286;2022-07-23T14:09:57;37.70;63.80
13817;DHT22;6979;52.116;5.286;2022-07-23T14:12:25;37.80;62.50
13817;DHT22;6979;52.116;5.286;2022-07-23T14:14:52;37.90;62.90
13817;DHT22;6979;52.116;5.286;2022-07-23T14:17:19;38.00;63.30
13817;DHT22;6979;52.116;5.286;2022-07-23T14:19:46;38.00;62.10
13817;DHT22;6979;52.116;5.286;2022-07-23T14:22:13;38.00;62.80
13817;DHT22;6979;52.116;5.286;2022-07-23T14:24:40;38.00;62.80
13817;DHT22;6979;52.116;5.286;2022-07-23T14:27:08;38.00;62.70
13817;DHT22;6979;52.116;5.286;2022-07-23T14:29:35;38.00;62.40
13817;DHT22;6979;52.116;5.286;2022-07-23T14:32:03;38.00;62.20
13817;DHT22;6979;52.116;5.286;2022-07-23T14:34:30;37.90;60.00
13817;DHT22;6979;52.116;5.286;2022-07-23T14:36:58;37.80;60.20
13817;DHT22;6979;52.116;5.286;2022-07-23T14:39:25;37.50;60.90
13817;DHT22;6979;52.116;5.286;2022-07-23T14:41:52;37.20;61.40
13817;DHT22;6979;52.116;5.286;2022-07-23T14:44:20;37.00;60.90
13817;DHT22;6979;52.116;5.286;2022-07-23T14:46:47;36.80;61.60
13817;DHT22;6979;52.116;5.286;2022-07-23T14:49:14;36.60;62.40
13817;DHT22;6979;52.116;5.286;2022-07-23T14:51:41;36.50;62.50
13817;DHT22;6979;52.116;5.286;2022-07-23T14:54:09;36.40;63.00
13817;DHT22;6979;52.116;5.286;2022-07-23T14:56:35;36.30;63.20
13817;DHT22;6979;52.116;5.286;2022-07-23T14:59:03;36.30;63.10
13817;DHT22;6979;52.116;5.286;2022-07-23T15:01:31;36.20;62.50
13817;DHT22;6979;52.116;5.286;2022-07-23T15:03:58;36.20;63.50
13817;DHT22;6979;52.116;5.286;2022-07-23T15:06:25;36.10;64.10
13817;DHT22;6979;52.116;5.286;2022-07-23T15:08:52;36.10;64.30
13817;DHT22;6979;52.116;5.286;2022-07-23T15:11:19;36.20;64.30
13817;DHT22;6979;52.116;5.286;2022-07-23T15:13:46;36.20;64.00
13817;DHT22;6979;52.116;5.286;2022-07-23T15:16:13;36.20;64.00
13817;DHT22;6979;52.116;5.286;2022-07-23T15:18:41;36.30;63.40
13817;DHT22;6979;52.116;5.286;2022-07-23T15:21:08;36.20;62.20
13817;DHT22;6979;52.116;5.286;2022-07-23T15:23:35;36.10;62.90
13817;DHT22;6979;52.116;5.286;2022-07-23T15:26:05;35.90;62.40
13817;DHT22;6979;52.116;5.286;2022-07-23T15:28:32;35.70;61.50
13817;DHT22;6979;52.116;5.286;2022-07-23T15:30:59;35.50;62.50
13817;DHT22;6979;52.116;5.286;2022-07-23T15:33:26;35.20;63.00
13817;DHT22;6979;52.116;5.286;2022-07-23T15:35:54;34.90;63.30
13817;DHT22;6979;52.116;5.286;2022-07-23T15:38:23;34.70;64.20
13817;DHT22;6979;52.116;5.286;2022-07-23T15:40:49;34.60;64.60
13817;DHT22;6979;52.116;5.286;2022-07-23T15:43:19;34.50;64.40
13817;DHT22;6979;52.116;5.286;2022-07-23T15:45:47;34.30;64.10
13817;DHT22;6979;52.116;5.286;2022-07-23T15:48:14;34.10;64.60
13817;DHT22;6979;52.116;5.286;2022-07-23T15:50:41;33.80;65.10
13817;DHT22;6979;52.116;5.286;2022-07-23T15:53:09;33.60;65.70
13817;DHT22;6979;52.116;5.286;2022-07-23T15:55:36;33.40;65.70
13817;DHT22;6979;52.116;5.286;2022-07-23T15:58:04;33.20;67.20
13817;DHT22;6979;52.116;5.286;2022-07-23T16:00:31;33.00;66.50